Teigen, MT

3:15 PM MDT on July 31, 2014 (GMT -0600)
RAWS DRY BLOOD CREEK MT US (MDBCM8) Elev 3152 ft | 47.24 °N, 108.36 °W | Change Station

Current weather conditions updated 34 minutes ago

Clear
Clear
94 °F
Feels Like 90 °F
N
4
Wind Variable Wind from West
Gusts 14.0 mph

Today is forecast to be Cooler than yesterday.

Today
High -- | Low -- °F
--% Chance of Precip.
Yesterday
High -- | Low -- °F
Precip. -- in
5:52 AM 8:48 PM
Waxing Crescent, 21% visible
Pressure 30.01 in
Visibility 10.0 miles
Clouds Clear
Heat Index 90 °F
Dew Point 38 °F
Humidity 14%
Rainfall 0.00 in
Snow Depth Not available.
UV 9 out of 12
Pollen 6.50 out of 12
Air Quality Not available.
Flu Activity Not available.
METAR KLWT 312054Z AUTO 32004KT 10SM CLR 31/05 A3014 RMK AO2 SLP162 T03110050 56008

More Conditions Fewer Conditions

Pressure 30.01 in
Visibility 10.0 miles
Clouds Clear
Heat Index 90 °F
Dew Point 38 °F
Humidity 14%
Rainfall 0.00 in
Snow Depth Not available.
UV 9 out of 12
Pollen 6.50 out of 12
Air Quality Not available.
Flu Activity Not available.
METAR KLWT 312054Z AUTO 32004KT 10SM CLR 31/05 A3014 RMK AO2 SLP162 T03110050 56008

More Conditions Fewer Conditions

10-Day Weather Forecast

Almanac

Astronomy

Jul. 31, 2014 Rise Set
Actual Time 5:52 AM MDT 8:48 PM MDT
Civil Twilight 5:16 AM MDT 9:23 PM MDT
Nautical Twilight 4:31 AM MDT 10:09 PM MDT
Astronomical Twilight 3:35 AM MDT 11:03 PM MDT
Moon 10:43 AM MDT 10:40 PM MDT
Length of Visible Light 16h 06m
Length of Day
14h 55m
Tomorrow will be 2m 36s shorter.
Waxing Crescent, 21% of the Moon is Illuminated
Today
Waxing Crescent
Aug 3
First Quarter
Aug 10
Full
Aug 17
Last Quarter
Aug 25
New

Today's Extremes

State Highs State Lows

Community

WunderPhotos

Upload Photos

1,739,455 photos uploaded!

Nearby

Snow Depth

Station Depth Elevation
Crystal Lake 0 in 6050 ft
Porcupine 0 in 6500 ft
Monument Peak 0 in 8850 ft
White Mill 1 in 8700 ft
Northeast Entrance 0 in 7350 ft

Earthquake Activity

City Distance Mag. Time & Date
No recent earthquake activity has been reported nearby.
Minimum magnitude displayed is 2.5.

Coastal Water Temperatures

Place Temperature
No Stations Reporting

Nearby Weather Stations

Station Location Temp. Heat Index Dew Point Humidity Wind Precip. Elev Updated Type
RAWS DRY BLOOD CREEK MT, Teigen, MT 94 °F 90 °F 38 °F 14% West  at  4 mph 0.00 in / hr 3152 ft 2:41 PM MDT MADIS

Show More Stations Show Fewer Stations